createdAt,value
2017-12-22T00:02:08.822Z,4.40
2017-12-22T00:04:35.913Z,5.53
2017-12-22T00:07:02.170Z,4.13
2017-12-22T00:09:28.402Z,4.80
2017-12-22T00:11:55.270Z,3.40
2017-12-22T00:14:21.558Z,3.63
2017-12-22T00:16:49.309Z,3.80
2017-12-22T00:19:15.676Z,2.93
2017-12-22T00:21:42.623Z,3.33
2017-12-22T00:24:09.507Z,3.50
2017-12-22T00:26:35.748Z,3.80
2017-12-22T00:29:01.931Z,3.97
2017-12-22T00:31:28.141Z,3.40
2017-12-22T00:33:55.139Z,2.60
2017-12-22T00:36:21.374Z,3.57
2017-12-22T00:38:47.706Z,3.30
2017-12-22T00:41:13.919Z,3.50
2017-12-22T00:43:40.207Z,3.10
2017-12-22T00:46:06.481Z,2.90
2017-12-22T00:48:32.638Z,3.03
2017-12-22T00:50:59.555Z,2.73
2017-12-22T00:53:25.735Z,2.53
2017-12-22T00:55:51.879Z,2.90
2017-12-22T00:58:18.075Z,3.07
2017-12-22T01:00:45.185Z,2.63
2017-12-22T01:03:11.566Z,2.97
2017-12-22T01:05:37.736Z,3.00
2017-12-22T01:08:04.075Z,2.60
2017-12-22T01:10:31.854Z,2.33
2017-12-22T01:12:58.865Z,3.00
2017-12-22T01:15:31.375Z,3.20
2017-12-22T01:18:04.477Z,2.60
2017-12-22T01:20:31.508Z,2.43
2017-12-22T01:22:58.374Z,2.40
2017-12-22T01:25:24.508Z,3.00
2017-12-22T01:27:50.721Z,3.20
2017-12-22T01:30:16.925Z,2.67
2017-12-22T01:32:43.926Z,3.70
2017-12-22T01:35:10.174Z,2.30
2017-12-22T01:37:36.431Z,3.07
2017-12-22T01:40:03.306Z,2.63
2017-12-22T01:42:29.503Z,2.60
2017-12-22T01:44:56.410Z,2.50
2017-12-22T01:47:22.730Z,3.07
2017-12-22T01:49:48.896Z,2.63
2017-12-22T01:52:15.904Z,3.40
2017-12-22T01:54:42.080Z,2.80
2017-12-22T01:57:08.352Z,2.73
2017-12-22T01:59:34.616Z,2.37
2017-12-22T02:02:01.650Z,3.10
2017-12-22T02:04:28.590Z,3.00
2017-12-22T02:06:55.499Z,2.87
2017-12-22T02:09:21.739Z,2.40
2017-12-22T02:11:48.169Z,2.77
2017-12-22T02:14:15.871Z,2.90
2017-12-22T02:16:42.769Z,2.50
2017-12-22T02:19:08.963Z,2.30
2017-12-22T02:21:35.152Z,2.77
2017-12-22T02:24:01.344Z,2.40
2017-12-22T02:26:27.564Z,2.40
2017-12-22T02:28:53.739Z,2.30
2017-12-22T02:31:20.702Z,2.20
2017-12-22T02:33:46.866Z,2.43
2017-12-22T02:36:13.030Z,2.00
2017-12-22T02:38:40.144Z,2.60
2017-12-22T02:41:06.381Z,2.30
2017-12-22T02:43:34.073Z,2.60
2017-12-22T02:46:01.023Z,2.40
2017-12-22T02:48:27.883Z,2.10
2017-12-22T02:50:54.055Z,2.57
2017-12-22T02:53:20.377Z,2.10
2017-12-22T02:55:46.580Z,2.87
2017-12-22T02:58:12.759Z,2.37
2017-12-22T03:00:39.868Z,2.10
2017-12-22T03:03:06.973Z,2.23
2017-12-22T03:05:33.150Z,2.07
2017-12-22T03:07:59.471Z,2.60
2017-12-22T03:10:25.705Z,1.90
2017-12-22T03:12:51.895Z,2.47
2017-12-22T03:15:18.142Z,2.23
2017-12-22T03:17:44.407Z,2.40
2017-12-22T03:20:11.445Z,2.20
2017-12-22T03:22:39.190Z,1.67
2017-12-22T03:25:05.354Z,2.10
2017-12-22T03:27:32.254Z,2.10
2017-12-22T03:29:58.397Z,2.17
2017-12-22T03:32:24.497Z,1.40
2017-12-22T03:34:50.683Z,1.70
2017-12-22T03:37:16.847Z,2.17
2017-12-22T03:39:43.033Z,2.03
2017-12-22T03:42:09.199Z,2.00
2017-12-22T03:44:35.526Z,2.17
2017-12-22T03:47:01.851Z,10.37
2017-12-22T03:49:28.029Z,10.10
2017-12-22T03:51:55.235Z,6.00
2017-12-22T03:54:21.372Z,6.40
2017-12-22T03:56:47.642Z,7.30
2017-12-22T03:59:14.568Z,7.07
2017-12-22T04:01:41.509Z,5.23
2017-12-22T04:04:07.684Z,4.30
2017-12-22T04:06:33.923Z,3.00
2017-12-22T04:09:00.173Z,3.63
2017-12-22T04:11:27.862Z,2.90
2017-12-22T04:13:54.945Z,2.97
2017-12-22T04:16:21.207Z,2.80
2017-12-22T04:18:48.063Z,2.43
2017-12-22T04:21:14.232Z,2.73
2017-12-22T04:23:40.420Z,2.27
2017-12-22T04:26:07.333Z,3.07
2017-12-22T04:28:33.651Z,3.73
2017-12-22T04:30:59.932Z,3.00
2017-12-22T04:33:27.023Z,3.83
2017-12-22T04:35:53.353Z,4.17
2017-12-22T04:38:19.586Z,3.90
2017-12-22T04:40:45.877Z,4.30
2017-12-22T04:43:12.266Z,1.73
2017-12-22T04:45:39.905Z,2.23
2017-12-22T04:48:06.048Z,2.13
2017-12-22T04:50:33.789Z,2.20
2017-12-22T04:53:00.023Z,2.40
2017-12-22T04:55:26.261Z,2.50
2017-12-22T04:57:52.618Z,2.50
2017-12-22T05:00:19.644Z,2.90
2017-12-22T05:02:46.118Z,4.60
2017-12-22T05:05:12.312Z,3.97
2017-12-22T05:07:38.428Z,6.00
2017-12-22T05:10:04.789Z,8.57
2017-12-22T05:12:31.036Z,8.30
2017-12-22T05:14:57.325Z,8.27
2017-12-22T05:17:24.306Z,8.00
2017-12-22T05:19:50.489Z,6.57
2017-12-22T05:22:16.639Z,5.10
2017-12-22T05:24:42.857Z,5.47
2017-12-22T05:27:09.860Z,6.30
2017-12-22T05:29:35.977Z,5.37
2017-12-22T05:32:02.218Z,4.83
2017-12-22T05:34:28.498Z,4.10
2017-12-22T05:36:54.716Z,5.33
2017-12-22T05:39:21.355Z,5.13
2017-12-22T05:41:47.740Z,4.50
2017-12-22T05:44:14.316Z,5.57
2017-12-22T05:46:40.460Z,6.07
2017-12-22T05:49:06.782Z,4.73
2017-12-22T05:51:33.000Z,4.73
2017-12-22T05:53:59.159Z,4.20
2017-12-22T05:56:25.348Z,5.00
2017-12-22T05:58:51.545Z,5.40
2017-12-22T06:01:17.735Z,5.27
2017-12-22T06:03:43.918Z,5.30
2017-12-22T06:06:10.809Z,6.33
2017-12-22T06:08:37.103Z,5.93
2017-12-22T06:11:03.400Z,4.90
2017-12-22T06:13:29.710Z,4.90
2017-12-22T06:15:55.861Z,5.30
2017-12-22T06:18:22.876Z,5.20
2017-12-22T06:20:49.123Z,4.60
2017-12-22T06:23:15.310Z,5.90
2017-12-22T06:25:41.497Z,5.47
2017-12-22T06:28:08.361Z,6.30
2017-12-22T06:30:34.576Z,6.50
2017-12-22T06:33:00.748Z,6.80
2017-12-22T06:35:26.933Z,6.20
2017-12-22T06:37:53.219Z,5.90
2017-12-22T06:40:19.791Z,6.90
2017-12-22T06:42:46.013Z,5.40
2017-12-22T06:45:12.242Z,6.20
2017-12-22T06:47:38.458Z,5.13
2017-12-22T06:50:04.665Z,5.63
2017-12-22T06:52:31.634Z,4.97
2017-12-22T06:54:57.813Z,5.47
2017-12-22T06:57:23.980Z,5.33
2017-12-22T06:59:50.876Z,5.20
2017-12-22T07:02:17.319Z,5.20
2017-12-22T07:04:43.642Z,6.90
2017-12-22T07:07:09.872Z,5.17
2017-12-22T07:09:36.163Z,5.80
2017-12-22T07:12:02.295Z,5.27
2017-12-22T07:14:28.540Z,5.30
2017-12-22T07:16:54.944Z,5.20
2017-12-22T07:19:21.111Z,6.70
2017-12-22T07:21:47.307Z,4.93
2017-12-22T07:24:13.493Z,5.30
2017-12-22T07:26:40.458Z,4.87
2017-12-22T07:29:06.664Z,5.77
2017-12-22T07:31:33.772Z,7.50
2017-12-22T07:34:00.014Z,6.60
2017-12-22T07:36:26.336Z,5.70
2017-12-22T07:38:53.280Z,6.70
2017-12-22T07:41:20.197Z,6.43
2017-12-22T07:43:46.479Z,6.30
2017-12-22T07:46:13.562Z,5.83
2017-12-22T07:48:39.758Z,5.50
2017-12-22T07:51:06.063Z,5.10
2017-12-22T07:53:32.379Z,5.10
2017-12-22T07:55:59.536Z,5.30
2017-12-22T07:58:27.271Z,5.87
2017-12-22T08:00:53.510Z,4.90
2017-12-22T08:03:19.833Z,5.67
2017-12-22T08:05:46.185Z,5.60
2017-12-22T08:08:12.419Z,5.80
2017-12-22T08:10:38.590Z,6.37
2017-12-22T08:13:04.869Z,8.70
2017-12-22T08:15:31.020Z,7.10
2017-12-22T08:17:57.244Z,7.50
2017-12-22T08:20:23.794Z,10.07
2017-12-22T08:22:50.274Z,10.90
2017-12-22T08:25:16.509Z,10.10
2017-12-22T08:27:44.208Z,8.47
2017-12-22T08:30:10.486Z,12.13
2017-12-22T08:32:36.698Z,12.80
2017-12-22T08:35:03.121Z,12.23
2017-12-22T08:37:29.344Z,10.50
2017-12-22T08:39:55.532Z,8.53
2017-12-22T08:42:22.495Z,9.90
2017-12-22T08:44:48.830Z,9.13
2017-12-22T08:47:15.198Z,8.70
2017-12-22T08:49:42.984Z,9.73
2017-12-22T08:52:09.992Z,9.17
2017-12-22T08:54:36.227Z,9.90
2017-12-22T08:57:02.460Z,10.20
2017-12-22T08:59:29.160Z,9.93
2017-12-22T09:01:55.341Z,9.57
2017-12-22T09:04:21.511Z,11.23
2017-12-22T09:06:47.793Z,10.13
2017-12-22T09:09:14.674Z,10.07
2017-12-22T09:11:40.866Z,10.50
2017-12-22T09:14:07.271Z,10.90
2017-12-22T09:16:33.527Z,11.33
2017-12-22T09:19:00.459Z,10.50
2017-12-22T09:21:26.668Z,10.23
2017-12-22T09:23:52.797Z,9.80
2017-12-22T09:26:19.034Z,9.80
2017-12-22T09:28:45.230Z,9.70
2017-12-22T09:31:11.363Z,9.67
2017-12-22T09:33:37.618Z,9.77
2017-12-22T09:36:03.814Z,8.57
2017-12-22T09:38:30.388Z,8.87
2017-12-22T09:40:57.338Z,10.40
2017-12-22T09:43:24.341Z,9.80
2017-12-22T09:45:50.589Z,9.90
2017-12-22T09:48:17.553Z,9.73
2017-12-22T09:50:44.543Z,22.23
2017-12-22T09:53:10.881Z,21.80
2017-12-22T09:55:38.047Z,19.23
2017-12-22T09:58:04.433Z,20.93
2017-12-22T10:00:30.676Z,13.60
2017-12-22T10:02:56.984Z,17.60
2017-12-22T10:05:23.372Z,25.40
2017-12-22T10:07:49.892Z,31.67
2017-12-22T10:10:16.080Z,30.70
2017-12-22T10:12:42.427Z,21.90
2017-12-22T10:15:08.765Z,14.27
2017-12-22T10:17:34.957Z,16.43
2017-12-22T10:20:01.123Z,9.43
2017-12-22T10:22:27.284Z,11.60
2017-12-22T10:24:54.203Z,11.10
2017-12-22T10:27:20.394Z,10.13
2017-12-22T10:29:46.728Z,9.73
2017-12-22T10:32:12.926Z,10.47
2017-12-22T10:34:40.156Z,10.40
2017-12-22T10:37:07.196Z,9.13
2017-12-22T10:39:34.200Z,9.23
2017-12-22T10:42:01.247Z,9.90
2017-12-22T11:04:47.639Z,7.30
2017-12-22T11:07:13.799Z,7.63
2017-12-22T11:09:40.142Z,8.00
2017-12-22T11:12:07.246Z,6.43
2017-12-22T11:14:33.523Z,7.60
2017-12-22T11:16:59.754Z,8.93
2017-12-22T11:19:26.137Z,6.90
2017-12-22T11:21:52.392Z,6.57
2017-12-22T11:24:18.603Z,7.33
2017-12-22T11:26:44.875Z,7.80
2017-12-22T11:29:11.012Z,7.03
2017-12-22T11:31:37.927Z,6.30
2017-12-22T11:34:04.209Z,6.90
2017-12-22T11:36:30.537Z,7.17
2017-12-22T11:38:57.345Z,7.10
2017-12-22T11:41:23.682Z,8.57
2017-12-22T11:43:50.630Z,7.63
2017-12-22T11:46:17.716Z,7.23
2017-12-22T11:48:43.967Z,5.83
2017-12-22T11:51:10.278Z,5.67
2017-12-22T11:53:36.521Z,6.37
2017-12-22T11:56:02.793Z,7.20
2017-12-22T11:58:29.751Z,5.73
2017-12-22T12:00:55.941Z,6.10
2017-12-22T12:03:22.321Z,6.63
2017-12-22T12:05:48.498Z,6.47
2017-12-22T12:08:14.709Z,5.73
2017-12-22T12:10:40.980Z,6.27
2017-12-22T12:13:08.521Z,6.20
2017-12-22T12:15:35.534Z,5.83
2017-12-22T12:18:01.733Z,6.40
2017-12-22T12:20:27.946Z,7.07
2017-12-22T12:22:54.103Z,6.07
2017-12-22T12:25:20.276Z,5.67
2017-12-22T12:27:47.174Z,5.90
2017-12-22T12:30:13.519Z,6.30
2017-12-22T12:32:39.921Z,5.80
2017-12-22T12:35:07.178Z,4.97
2017-12-22T12:37:33.912Z,4.97
2017-12-22T12:40:00.213Z,5.73
2017-12-22T12:42:26.471Z,5.20
2017-12-22T12:44:52.694Z,4.70
2017-12-22T12:47:18.881Z,4.80
2017-12-22T12:49:45.851Z,4.80
2017-12-22T12:52:11.917Z,5.20
2017-12-22T12:54:38.105Z,4.33
2017-12-22T12:57:04.329Z,5.00
2017-12-22T12:59:30.725Z,5.47
2017-12-22T13:01:57.875Z,4.50
2017-12-22T13:04:24.897Z,4.57
2017-12-22T13:06:51.944Z,5.00
2017-12-22T13:09:18.276Z,4.40
2017-12-22T13:11:44.519Z,5.57
2017-12-22T13:14:11.775Z,4.57
2017-12-22T13:16:38.982Z,5.57
2017-12-22T13:19:05.240Z,4.30
2017-12-22T13:21:32.356Z,4.80
2017-12-22T13:23:58.587Z,4.67
2017-12-22T13:26:24.827Z,4.40
2017-12-22T13:28:51.010Z,4.27
2017-12-22T13:31:17.273Z,3.20
2017-12-22T13:33:43.415Z,3.90
2017-12-22T13:36:10.676Z,3.97
2017-12-22T13:38:37.595Z,4.20
2017-12-22T13:41:03.783Z,4.13
2017-12-22T13:43:30.072Z,3.87
2017-12-22T13:45:57.050Z,4.30
2017-12-22T13:48:23.389Z,3.50
2017-12-22T13:50:49.630Z,4.30
2017-12-22T13:53:15.949Z,4.27
2017-12-22T13:55:42.187Z,3.80
2017-12-22T13:58:09.306Z,3.40
2017-12-22T14:00:35.522Z,3.40
2017-12-22T14:03:01.776Z,3.40
2017-12-22T14:05:28.062Z,3.63
2017-12-22T14:07:55.588Z,3.53
2017-12-22T14:10:21.901Z,2.97
2017-12-22T14:12:48.978Z,3.80
2017-12-22T14:15:15.081Z,15.97
2017-12-22T14:17:41.337Z,5.30
2017-12-22T14:20:07.568Z,8.33
2017-12-22T14:22:33.917Z,7.40
2017-12-22T14:25:00.882Z,7.30
2017-12-22T14:27:27.053Z,6.80
2017-12-22T14:29:53.324Z,4.10
2017-12-22T14:32:19.633Z,3.60
2017-12-22T14:34:46.712Z,4.30
2017-12-22T14:37:12.968Z,2.83
2017-12-22T14:39:40.107Z,3.27
2017-12-22T14:42:06.414Z,3.83
2017-12-22T14:44:32.740Z,12.00
2017-12-22T14:46:58.962Z,16.37
2017-12-22T14:49:25.360Z,13.90
2017-12-22T14:51:52.086Z,12.20
2017-12-22T14:54:18.306Z,19.67
2017-12-22T14:56:45.295Z,20.97
2017-12-22T14:59:11.682Z,16.17
2017-12-22T15:01:37.880Z,8.27
2017-12-22T15:04:04.093Z,5.50
2017-12-22T15:06:30.325Z,6.83
2017-12-22T15:08:56.604Z,7.80
2017-12-22T15:11:24.474Z,8.80
2017-12-22T15:13:50.809Z,7.90
2017-12-22T15:16:17.748Z,5.37
2017-12-22T15:18:44.350Z,5.93
2017-12-22T15:21:11.138Z,4.57
2017-12-22T15:23:38.081Z,5.90
2017-12-22T15:26:05.036Z,13.50
2017-12-22T15:28:31.241Z,15.00
2017-12-22T15:30:58.748Z,10.10
2017-12-22T15:33:25.058Z,11.20
2017-12-22T15:35:51.386Z,6.30
2017-12-22T15:38:18.207Z,4.73
2017-12-22T15:40:45.271Z,4.13
2017-12-22T15:43:11.761Z,3.97
2017-12-22T15:45:38.541Z,3.20
2017-12-22T15:48:05.023Z,4.23
2017-12-22T15:50:31.325Z,4.43
2017-12-22T15:52:57.663Z,3.10
2017-12-22T15:55:23.943Z,4.87
2017-12-22T15:57:50.855Z,7.83
2017-12-22T16:00:17.138Z,8.27
2017-12-22T16:02:46.495Z,13.60
2017-12-22T16:05:13.611Z,13.30
2017-12-22T16:07:39.833Z,12.77
2017-12-22T16:10:06.373Z,8.07
2017-12-22T16:12:32.559Z,8.83
2017-12-22T16:14:59.521Z,5.20
2017-12-22T16:17:25.661Z,4.23
2017-12-22T16:19:51.799Z,4.30
2017-12-22T16:22:18.081Z,4.37
2017-12-22T16:24:44.388Z,4.30
2017-12-22T16:27:10.651Z,3.60
2017-12-22T16:29:36.950Z,3.13
2017-12-22T16:32:04.013Z,3.30
2017-12-22T16:34:30.298Z,3.43
2017-12-22T16:36:56.664Z,3.50
2017-12-22T16:39:23.677Z,3.57
2017-12-22T16:41:51.502Z,4.77
2017-12-22T16:44:17.952Z,6.13
2017-12-22T16:46:44.168Z,5.33
2017-12-22T16:49:10.341Z,6.20
2017-12-22T16:51:45.148Z,4.27
2017-12-22T16:54:12.200Z,4.17
2017-12-22T16:56:38.421Z,3.10
2017-12-22T16:59:04.672Z,3.03
2017-12-22T17:01:31.810Z,3.40
2017-12-22T17:03:58.614Z,4.33
2017-12-22T17:06:25.298Z,5.60
2017-12-22T17:08:52.220Z,5.80
2017-12-22T17:11:19.178Z,4.33
2017-12-22T17:13:45.404Z,5.17
2017-12-22T17:16:11.631Z,4.57
2017-12-22T17:18:39.404Z,5.40
2017-12-22T17:21:06.423Z,10.40
2017-12-22T17:23:33.921Z,15.97
2017-12-22T17:26:00.195Z,10.40
2017-12-22T17:28:26.531Z,5.87
2017-12-22T17:30:52.789Z,5.80
2017-12-22T17:33:19.798Z,12.43
2017-12-22T17:35:45.965Z,6.70
2017-12-22T17:38:13.334Z,8.60
2017-12-22T17:40:39.650Z,7.67
2017-12-22T17:43:06.073Z,7.80
2017-12-22T17:45:33.225Z,10.07
2017-12-22T17:48:01.606Z,7.67
2017-12-22T17:50:28.804Z,5.53
2017-12-22T17:52:55.518Z,6.70
2017-12-22T17:55:22.650Z,6.03
2017-12-22T18:00:33.480Z,6.33
2017-12-22T18:03:00.076Z,6.93
2017-12-22T18:05:26.328Z,6.50
2017-12-22T18:07:52.493Z,6.17
2017-12-22T18:10:18.727Z,5.57
2017-12-22T18:12:45.923Z,5.90
2017-12-22T18:15:12.222Z,6.77
2017-12-22T18:17:39.218Z,6.03
2017-12-22T18:20:10.368Z,6.10
2017-12-22T18:22:36.976Z,6.00
2017-12-22T18:25:03.549Z,6.30
2017-12-22T18:27:30.903Z,6.57
2017-12-22T18:29:58.830Z,11.00
2017-12-22T18:32:25.311Z,13.70
2017-12-22T18:34:53.717Z,13.30
2017-12-22T18:37:20.609Z,13.37
2017-12-22T18:39:47.049Z,12.10
2017-12-22T18:42:14.190Z,10.70
2017-12-22T18:44:41.183Z,10.00
2017-12-22T18:47:07.561Z,11.10
2017-12-22T18:49:34.028Z,15.70
2017-12-22T18:52:01.086Z,11.90
2017-12-22T18:54:28.456Z,10.80
2017-12-22T18:56:56.185Z,10.63
2017-12-22T18:59:22.358Z,10.83
2017-12-22T19:01:51.922Z,9.40
2017-12-22T19:04:18.991Z,9.60
2017-12-22T19:06:45.164Z,10.20
2017-12-22T19:09:11.418Z,10.33
2017-12-22T19:11:38.341Z,8.37
2017-12-22T19:14:06.249Z,7.97
2017-12-22T19:16:32.507Z,8.80
2017-12-22T19:18:58.872Z,6.90
2017-12-22T19:21:25.315Z,16.03
2017-12-22T19:23:52.264Z,14.00
2017-12-22T19:26:19.293Z,16.00
2017-12-22T19:28:46.154Z,17.13
2017-12-22T19:31:13.256Z,15.70
2017-12-22T19:33:39.354Z,13.53
2017-12-22T19:36:05.628Z,9.37
2017-12-22T19:38:32.071Z,6.23
2017-12-22T19:40:58.307Z,9.00
2017-12-22T19:43:26.717Z,15.70
2017-12-22T19:45:53.039Z,11.00
2017-12-22T19:48:19.368Z,9.33
2017-12-22T19:50:45.505Z,7.20
2017-12-22T19:53:11.755Z,6.80
2017-12-22T19:55:38.026Z,7.80
2017-12-22T19:58:05.056Z,8.50
2017-12-22T20:00:31.310Z,7.97
2017-12-22T20:02:58.437Z,9.60
2017-12-22T20:05:24.594Z,11.93
2017-12-22T20:07:51.162Z,15.77
2017-12-22T20:10:17.372Z,14.80
2017-12-22T20:12:43.565Z,11.00
2017-12-22T20:15:10.666Z,8.60
2017-12-22T20:17:36.863Z,7.93
2017-12-22T20:20:03.139Z,7.97
2017-12-22T20:22:29.482Z,7.30
2017-12-22T20:24:56.425Z,6.93
2017-12-22T20:27:23.313Z,6.43
2017-12-22T20:29:49.598Z,6.83
2017-12-22T20:32:16.609Z,7.83
2017-12-22T20:34:42.777Z,7.20
2017-12-22T20:37:09.932Z,7.60
2017-12-22T20:39:36.974Z,8.37
2017-12-22T20:42:03.983Z,9.10
2017-12-22T20:44:30.154Z,14.50
2017-12-22T20:46:56.410Z,15.70
2017-12-22T20:49:22.585Z,12.37
2017-12-22T20:51:49.518Z,10.17
2017-12-22T20:54:15.773Z,9.70
2017-12-22T20:56:42.675Z,9.00
2017-12-22T20:59:08.971Z,9.67
2017-12-22T21:01:36.551Z,11.47
2017-12-22T21:04:02.759Z,8.90
2017-12-22T21:06:28.923Z,8.73
2017-12-22T21:08:56.370Z,11.73
2017-12-22T21:11:22.505Z,12.37
2017-12-22T21:13:48.649Z,9.50
2017-12-22T21:16:20.294Z,7.83
2017-12-22T21:18:48.144Z,7.20
2017-12-22T21:21:14.524Z,5.53
2017-12-22T21:23:41.382Z,4.27
2017-12-22T21:26:07.672Z,4.40
2017-12-22T21:28:33.799Z,4.47
2017-12-22T21:31:01.436Z,4.20
2017-12-22T21:33:28.426Z,4.23
2017-12-22T21:35:54.796Z,4.23
2017-12-22T21:38:24.072Z,4.90
2017-12-22T21:40:50.401Z,3.63
2017-12-22T21:43:16.604Z,4.63
2017-12-22T21:45:42.899Z,4.57
2017-12-22T21:48:10.110Z,4.57
2017-12-22T21:50:36.237Z,5.10
2017-12-22T21:53:03.444Z,4.10
2017-12-22T21:55:29.677Z,3.67
2017-12-22T21:57:55.892Z,4.20
2017-12-22T22:00:22.875Z,3.97
2017-12-22T22:02:49.096Z,4.83
2017-12-22T22:05:15.443Z,4.50
2017-12-22T22:07:41.716Z,5.03
2017-12-22T22:10:08.663Z,4.87
2017-12-22T22:12:36.551Z,4.90
2017-12-22T22:15:03.309Z,4.77
2017-12-22T22:17:29.543Z,5.10
2017-12-22T22:19:56.798Z,5.77
2017-12-22T22:22:23.972Z,4.67
2017-12-22T22:24:50.251Z,4.77
2017-12-22T22:27:16.396Z,5.37
2017-12-22T22:29:42.690Z,4.70
2017-12-22T22:32:08.860Z,5.17
2017-12-22T22:34:35.125Z,5.30
2017-12-22T22:37:01.629Z,4.30
2017-12-22T22:39:28.547Z,4.33
2017-12-22T22:41:54.837Z,5.03
2017-12-22T22:44:20.967Z,4.83
2017-12-22T22:46:47.338Z,4.30
2017-12-22T22:49:13.660Z,5.20
2017-12-22T22:51:39.842Z,5.37
2017-12-22T22:54:06.043Z,5.50
2017-12-22T22:56:32.348Z,4.93
2017-12-22T22:58:58.509Z,5.33
2017-12-22T23:01:25.537Z,5.70
2017-12-22T23:03:52.624Z,7.17
2017-12-22T23:06:18.812Z,8.20
2017-12-22T23:08:45.011Z,10.20
2017-12-22T23:11:11.257Z,10.67
2017-12-22T23:13:38.599Z,9.30
2017-12-22T23:16:05.912Z,8.20
2017-12-22T23:18:32.187Z,7.67
2017-12-22T23:20:58.484Z,7.50
2017-12-22T23:23:24.650Z,9.40
2017-12-22T23:25:52.264Z,8.47
2017-12-22T23:28:18.424Z,9.93
2017-12-22T23:30:44.620Z,10.63
2017-12-22T23:33:10.839Z,11.33
2017-12-22T23:35:37.135Z,9.90
2017-12-22T23:38:03.422Z,9.30
2017-12-22T23:40:29.583Z,10.13
2017-12-22T23:42:56.480Z,11.37
2017-12-22T23:45:22.645Z,13.10
2017-12-22T23:47:49.597Z,12.80
2017-12-22T23:50:16.485Z,12.23
2017-12-22T23:52:42.640Z,12.30
2017-12-22T23:55:08.769Z,12.50
2017-12-22T23:57:34.928Z,12.53
